createdAt,value
2019-05-18T00:04:28.007Z,16.29
2019-05-18T00:09:49.541Z,16.31
2019-05-18T00:15:13.431Z,16.25
2019-05-18T00:20:35.170Z,16.17
2019-05-18T00:25:57.144Z,16.10
2019-05-18T00:31:18.418Z,16.14
2019-05-18T00:36:40.455Z,16.04
2019-05-18T00:42:01.943Z,16.04
2019-05-18T00:47:23.636Z,15.87
2019-05-18T00:52:45.334Z,15.88
2019-05-18T00:58:07.165Z,15.91
2019-05-18T01:03:28.795Z,15.95
2019-05-18T01:08:50.329Z,15.99
2019-05-18T01:14:12.096Z,16.04
2019-05-18T01:19:33.736Z,16.07
2019-05-18T01:24:55.189Z,16.07
2019-05-18T01:30:17.450Z,16.10
2019-05-18T01:35:39.117Z,16.13
2019-05-18T01:41:00.814Z,16.10
2019-05-18T01:46:22.401Z,16.16
2019-05-18T01:51:43.914Z,16.23
2019-05-18T01:57:06.484Z,16.25
2019-05-18T02:02:28.525Z,16.16
2019-05-18T02:07:50.156Z,16.10
2019-05-18T02:13:11.697Z,16.06
2019-05-18T02:18:33.309Z,15.97
2019-05-18T02:23:55.086Z,15.95
2019-05-18T02:29:16.909Z,15.96
2019-05-18T02:34:38.664Z,15.95
2019-05-18T02:40:00.632Z,15.93
2019-05-18T02:45:22.055Z,15.92
2019-05-18T02:50:43.701Z,15.87
2019-05-18T02:56:05.532Z,15.80
2019-05-18T03:01:27.294Z,15.73
2019-05-18T03:06:48.978Z,15.78
2019-05-18T03:12:10.535Z,15.81
2019-05-18T03:17:32.189Z,16.16
2019-05-18T03:22:53.671Z,16.43
2019-05-18T03:28:15.352Z,16.52
2019-05-18T03:33:37.067Z,16.36
2019-05-18T03:38:59.014Z,16.57
2019-05-18T03:44:20.846Z,16.80
2019-05-18T03:49:42.483Z,17.04
2019-05-18T03:55:05.106Z,17.19
2019-05-18T04:00:27.624Z,17.61
2019-05-18T04:05:49.443Z,18.12
2019-05-18T04:11:11.424Z,18.12
2019-05-18T04:16:32.860Z,18.11
2019-05-18T04:21:54.431Z,17.68
2019-05-18T04:27:15.905Z,17.24
2019-05-18T04:32:37.218Z,17.09
2019-05-18T04:37:59.193Z,17.13
2019-05-18T04:43:20.642Z,17.15
2019-05-18T04:48:42.494Z,17.22
2019-05-18T04:54:04.308Z,17.37
2019-05-18T04:59:25.871Z,17.54
2019-05-18T05:04:51.399Z,17.74
2019-05-18T05:10:11.426Z,17.83
2019-05-18T05:15:33.251Z,17.87
2019-05-18T05:20:54.601Z,17.99
2019-05-18T05:26:16.443Z,18.10
2019-05-18T05:31:38.065Z,18.25
2019-05-18T05:36:59.593Z,18.16
2019-05-18T05:42:21.460Z,18.22
2019-05-18T05:47:43.357Z,18.46
2019-05-18T05:53:04.956Z,18.52
2019-05-18T05:58:26.880Z,18.83
2019-05-18T06:03:48.771Z,19.06
2019-05-18T06:09:10.609Z,19.29
2019-05-18T06:14:32.149Z,19.55
2019-05-18T06:19:53.750Z,19.90
2019-05-18T06:25:15.641Z,19.27
2019-05-18T06:30:37.492Z,20.82
2019-05-18T06:35:59.324Z,21.14
2019-05-18T06:41:21.271Z,21.05
2019-05-18T06:46:43.136Z,20.95
2019-05-18T06:52:04.767Z,20.85
2019-05-18T06:57:27.791Z,20.76
2019-05-18T07:02:49.895Z,20.84
2019-05-18T07:08:11.680Z,20.87
2019-05-18T07:13:36.429Z,20.90
2019-05-18T07:18:59.125Z,20.94
2019-05-18T07:24:20.921Z,21.03
2019-05-18T07:29:42.476Z,21.21
2019-05-18T07:35:04.306Z,21.44
2019-05-18T07:40:26.293Z,21.64
2019-05-18T07:45:48.063Z,21.80
2019-05-18T07:51:09.811Z,21.93
2019-05-18T07:56:31.626Z,22.03
2019-05-18T08:01:53.555Z,22.17
2019-05-18T08:07:15.532Z,22.38
2019-05-18T08:12:37.169Z,22.50
2019-05-18T08:17:58.611Z,22.58
2019-05-18T08:23:20.545Z,22.74
2019-05-18T08:28:42.079Z,22.84
2019-05-18T08:34:04.027Z,23.09
2019-05-18T08:39:25.851Z,23.40
2019-05-18T08:44:47.019Z,23.66
2019-05-18T08:50:09.403Z,24.04
2019-05-18T08:55:31.461Z,24.18
2019-05-18T09:00:53.450Z,24.22
2019-05-18T09:06:15.632Z,24.59
2019-05-18T09:11:37.188Z,24.54
2019-05-18T09:16:59.188Z,24.98
2019-05-18T09:22:23.146Z,24.93
2019-05-18T09:27:44.487Z,25.23
2019-05-18T09:33:06.120Z,25.41
2019-05-18T09:38:28.017Z,25.09
2019-05-18T09:43:49.704Z,25.05
2019-05-18T09:49:11.554Z,25.29
2019-05-18T09:54:32.989Z,25.53
2019-05-18T09:59:55.026Z,26.15
2019-05-18T10:05:17.014Z,25.65
2019-05-18T10:10:37.839Z,25.36
2019-05-18T10:15:59.489Z,25.67
2019-05-18T10:21:22.149Z,25.59
2019-05-18T10:26:43.977Z,25.26
2019-05-18T10:32:05.873Z,25.53
2019-05-18T10:37:27.440Z,26.38
2019-05-18T10:42:49.055Z,26.78
2019-05-18T10:48:11.066Z,26.66
2019-05-18T10:53:32.475Z,26.03
2019-05-18T10:58:54.348Z,26.08
2019-05-18T11:04:16.394Z,25.80
2019-05-18T11:09:38.144Z,25.88
2019-05-18T11:14:59.906Z,26.08
2019-05-18T11:20:21.767Z,25.77
2019-05-18T11:25:43.272Z,25.57
2019-05-18T11:31:04.844Z,25.68
2019-05-18T11:36:26.607Z,26.43
2019-05-18T11:41:48.056Z,26.15
2019-05-18T11:47:09.634Z,26.79
2019-05-18T11:52:31.564Z,26.60
2019-05-18T11:57:53.220Z,27.00
2019-05-18T12:03:14.512Z,27.34
2019-05-18T12:08:36.404Z,27.53
2019-05-18T12:14:06.156Z,27.38
2019-05-18T12:19:28.051Z,27.55
2019-05-18T12:24:50.170Z,27.55
2019-05-18T12:30:12.662Z,27.36
2019-05-18T12:35:34.325Z,27.58
2019-05-18T12:40:55.968Z,27.72
2019-05-18T12:46:17.713Z,27.69
2019-05-18T12:51:39.176Z,27.81
2019-05-18T12:57:00.549Z,28.30
2019-05-18T13:02:22.109Z,29.64
2019-05-18T13:07:43.736Z,30.00
2019-05-18T13:13:05.422Z,30.84
2019-05-18T13:18:26.855Z,30.23
2019-05-18T13:23:48.705Z,30.96
2019-05-18T13:29:10.641Z,31.18
2019-05-18T13:34:32.301Z,31.28
2019-05-18T13:39:54.445Z,30.48
2019-05-18T13:45:16.636Z,31.17
2019-05-18T13:50:38.380Z,30.03
2019-05-18T13:56:01.531Z,30.46
2019-05-18T14:01:23.174Z,29.06
2019-05-18T14:06:45.022Z,27.68
2019-05-18T14:12:06.646Z,26.90
2019-05-18T14:17:28.431Z,26.25
2019-05-18T14:22:50.170Z,26.44
2019-05-18T14:28:11.859Z,24.80
2019-05-18T14:33:33.882Z,24.57
2019-05-18T14:38:56.847Z,24.10
2019-05-18T14:44:18.974Z,23.82
2019-05-18T14:49:40.748Z,24.11
2019-05-18T14:55:02.358Z,24.30
2019-05-18T15:00:24.317Z,25.76
2019-05-18T15:05:46.665Z,26.83
2019-05-18T15:11:08.419Z,27.88
2019-05-18T15:16:30.256Z,28.02
2019-05-18T15:21:51.811Z,28.47
2019-05-18T15:27:13.636Z,28.38
2019-05-18T15:32:35.389Z,27.42
2019-05-18T15:37:57.052Z,26.24
2019-05-18T15:43:18.974Z,25.78
2019-05-18T15:48:40.941Z,26.55
2019-05-18T15:54:02.729Z,27.09
2019-05-18T15:59:24.538Z,27.50
2019-05-18T16:04:46.169Z,27.11
2019-05-18T16:10:09.049Z,26.89
2019-05-18T16:15:30.870Z,27.00
2019-05-18T16:20:57.443Z,27.02
2019-05-18T16:26:21.920Z,26.84
2019-05-18T16:31:43.243Z,26.75
2019-05-18T16:37:04.949Z,25.61
2019-05-18T16:42:26.689Z,25.01
2019-05-18T16:48:08.913Z,24.38
2019-05-18T16:53:30.548Z,24.00
2019-05-18T16:58:52.380Z,23.47
2019-05-18T17:04:14.044Z,23.38
2019-05-18T17:09:35.541Z,23.02
2019-05-18T17:14:57.305Z,22.50
2019-05-18T17:20:19.600Z,22.27
2019-05-18T17:25:41.104Z,22.14
2019-05-18T17:31:03.136Z,21.87
2019-05-18T17:36:24.701Z,21.61
2019-05-18T17:41:46.218Z,21.51
2019-05-18T17:47:07.878Z,21.31
2019-05-18T17:52:29.685Z,20.98
2019-05-18T17:57:51.587Z,20.92
2019-05-18T18:03:13.227Z,20.88
2019-05-18T18:08:35.416Z,20.79
2019-05-18T18:13:57.968Z,20.82
2019-05-18T18:19:19.764Z,20.49
2019-05-18T18:24:41.330Z,20.37
2019-05-18T18:30:03.394Z,20.37
2019-05-18T18:35:25.014Z,20.25
2019-05-18T18:40:46.796Z,20.16
2019-05-18T18:46:09.065Z,20.04
2019-05-18T18:51:30.933Z,19.91
2019-05-18T18:56:52.886Z,19.73
2019-05-18T19:02:14.400Z,19.48
2019-05-18T19:07:36.925Z,19.39
2019-05-18T19:12:58.606Z,19.32
2019-05-18T19:18:19.963Z,19.23
2019-05-18T19:23:41.806Z,19.10
2019-05-18T19:29:05.311Z,19.07
2019-05-18T19:34:26.719Z,18.97
2019-05-18T19:39:48.627Z,18.78
2019-05-18T19:45:10.843Z,18.68
2019-05-18T19:50:32.458Z,18.57
2019-05-18T19:55:54.155Z,18.41
2019-05-18T20:01:15.824Z,18.29
2019-05-18T20:06:37.760Z,18.29
2019-05-18T20:11:59.633Z,18.16
2019-05-18T20:17:21.440Z,18.06
2019-05-18T20:22:43.206Z,18.30
2019-05-18T20:28:05.135Z,18.30
2019-05-18T20:33:27.038Z,18.30
2019-05-18T20:38:49.015Z,17.94
2019-05-18T20:44:10.564Z,17.76
2019-05-18T20:49:32.228Z,17.67
2019-05-18T20:54:54.189Z,17.59
2019-05-18T21:00:16.022Z,17.59
2019-05-18T21:05:37.753Z,16.92
2019-05-18T21:10:59.298Z,17.57
2019-05-18T21:16:21.249Z,17.58
2019-05-18T21:21:43.085Z,17.61
2019-05-18T21:27:04.614Z,17.59
2019-05-18T21:32:26.152Z,17.48
2019-05-18T21:37:47.926Z,17.61
2019-05-18T21:43:09.980Z,17.47
2019-05-18T21:48:31.868Z,17.28
2019-05-18T21:53:53.426Z,17.20
2019-05-18T21:59:15.439Z,17.26
2019-05-18T22:04:37.056Z,17.39
2019-05-18T22:09:58.594Z,17.33
2019-05-18T22:15:20.701Z,17.32
2019-05-18T22:20:44.256Z,17.32
2019-05-18T22:26:06.522Z,17.22
2019-05-18T22:31:28.043Z,17.02
2019-05-18T22:36:49.575Z,16.87
2019-05-18T22:42:11.252Z,16.97
2019-05-18T22:47:32.914Z,16.89
2019-05-18T22:52:54.717Z,16.91
2019-05-18T22:58:16.569Z,16.99
2019-05-18T23:03:38.317Z,17.04
2019-05-18T23:08:59.760Z,17.00
2019-05-18T23:14:21.671Z,17.09
2019-05-18T23:19:43.253Z,17.07
2019-05-18T23:25:05.433Z,17.01
2019-05-18T23:30:26.911Z,16.96
2019-05-18T23:35:48.624Z,16.76
2019-05-18T23:41:10.394Z,16.52
2019-05-18T23:46:31.937Z,16.47
2019-05-18T23:51:53.465Z,16.47
2019-05-18T23:57:15.216Z,16.32
